sensor_id;sensor_type;location;lat;lon;timestamp;P1;durP1;ratioP1;P2;durP2;ratioP2
20415;SDS011;10367;52.202;5.996;2023-08-21T00:00:51;23.40;;;21.67;;
20415;SDS011;10367;52.202;5.996;2023-08-21T00:03:21;24.60;;;22.43;;
20415;SDS011;10367;52.202;5.996;2023-08-21T00:05:52;22.90;;;21.17;;
20415;SDS011;10367;52.202;5.996;2023-08-21T00:08:21;24.13;;;22.17;;
20415;SDS011;10367;52.202;5.996;2023-08-21T00:10:50;22.87;;;21.27;;
20415;SDS011;10367;52.202;5.996;2023-08-21T00:13:19;24.20;;;22.20;;
20415;SDS011;10367;52.202;5.996;2023-08-21T00:15:48;21.87;;;20.47;;
20415;SDS011;10367;52.202;5.996;2023-08-21T00:18:17;25.57;;;23.27;;
20415;SDS011;10367;52.202;5.996;2023-08-21T00:20:50;22.60;;;20.90;;
20415;SDS011;10367;52.202;5.996;2023-08-21T00:23:20;24.07;;;21.93;;
20415;SDS011;10367;52.202;5.996;2023-08-21T00:25:49;22.87;;;20.97;;
20415;SDS011;10367;52.202;5.996;2023-08-21T00:28:21;24.40;;;22.13;;
20415;SDS011;10367;52.202;5.996;2023-08-21T00:30:50;23.17;;;21.30;;
20415;SDS011;10367;52.202;5.996;2023-08-21T00:33:22;26.27;;;23.70;;
20415;SDS011;10367;52.202;5.996;2023-08-21T00:35:55;24.93;;;22.97;;
20415;SDS011;10367;52.202;5.996;2023-08-21T00:38:24;23.60;;;21.80;;
20415;SDS011;10367;52.202;5.996;2023-08-21T00:40:57;22.20;;;20.37;;
20415;SDS011;10367;52.202;5.996;2023-08-21T00:43:26;24.57;;;22.10;;
20415;SDS011;10367;52.202;5.996;2023-08-21T00:45:55;22.93;;;20.57;;
20415;SDS011;10367;52.202;5.996;2023-08-21T00:48:24;23.57;;;21.67;;
20415;SDS011;10367;52.202;5.996;2023-08-21T00:50:55;22.00;;;20.40;;
20415;SDS011;10367;52.202;5.996;2023-08-21T00:53:26;23.13;;;21.43;;
20415;SDS011;10367;52.202;5.996;2023-08-21T00:55:55;23.63;;;21.73;;
20415;SDS011;10367;52.202;5.996;2023-08-21T00:58:24;22.70;;;21.10;;
20415;SDS011;10367;52.202;5.996;2023-08-21T01:00:53;22.97;;;21.13;;
20415;SDS011;10367;52.202;5.996;2023-08-21T01:03:22;22.60;;;20.90;;
20415;SDS011;10367;52.202;5.996;2023-08-21T01:05:52;22.40;;;20.87;;
20415;SDS011;10367;52.202;5.996;2023-08-21T01:08:25;24.70;;;22.63;;
20415;SDS011;10367;52.202;5.996;2023-08-21T01:11:08;25.00;;;22.63;;
20415;SDS011;10367;52.202;5.996;2023-08-21T01:13:45;21.57;;;19.87;;
20415;SDS011;10367;52.202;5.996;2023-08-21T01:16:20;23.70;;;21.93;;
20415;SDS011;10367;52.202;5.996;2023-08-21T01:18:51;23.37;;;21.47;;
20415;SDS011;10367;52.202;5.996;2023-08-21T01:21:32;22.87;;;20.87;;
20415;SDS011;10367;52.202;5.996;2023-08-21T01:24:03;22.83;;;21.13;;
20415;SDS011;10367;52.202;5.996;2023-08-21T01:26:32;24.53;;;22.33;;
20415;SDS011;10367;52.202;5.996;2023-08-21T01:29:03;25.13;;;22.27;;
20415;SDS011;10367;52.202;5.996;2023-08-21T01:31:33;23.03;;;21.17;;
20415;SDS011;10367;52.202;5.996;2023-08-21T01:34:06;24.67;;;22.43;;
20415;SDS011;10367;52.202;5.996;2023-08-21T01:36:43;22.83;;;21.10;;
20415;SDS011;10367;52.202;5.996;2023-08-21T01:39:20;24.40;;;22.07;;
20415;SDS011;10367;52.202;5.996;2023-08-21T01:41:53;22.47;;;20.73;;
20415;SDS011;10367;52.202;5.996;2023-08-21T01:44:23;25.50;;;23.00;;
20415;SDS011;10367;52.202;5.996;2023-08-21T01:46:53;22.57;;;20.87;;
20415;SDS011;10367;52.202;5.996;2023-08-21T01:49:22;23.90;;;21.97;;
20415;SDS011;10367;52.202;5.996;2023-08-21T01:51:51;22.20;;;20.50;;
20415;SDS011;10367;52.202;5.996;2023-08-21T01:54:23;23.47;;;21.60;;
20415;SDS011;10367;52.202;5.996;2023-08-21T01:56:52;21.77;;;19.77;;
20415;SDS011;10367;52.202;5.996;2023-08-21T01:59:21;22.97;;;21.37;;
20415;SDS011;10367;52.202;5.996;2023-08-21T02:01:51;21.60;;;19.97;;
20415;SDS011;10367;52.202;5.996;2023-08-21T02:04:20;22.40;;;20.63;;
20415;SDS011;10367;52.202;5.996;2023-08-21T02:06:52;21.43;;;19.83;;
20415;SDS011;10367;52.202;5.996;2023-08-21T02:09:21;21.50;;;19.63;;
20415;SDS011;10367;52.202;5.996;2023-08-21T02:11:54;22.73;;;20.93;;
20415;SDS011;10367;52.202;5.996;2023-08-21T02:14:22;24.90;;;22.40;;
20415;SDS011;10367;52.202;5.996;2023-08-21T02:16:54;22.53;;;20.93;;
20415;SDS011;10367;52.202;5.996;2023-08-21T02:19:23;23.77;;;21.83;;
20415;SDS011;10367;52.202;5.996;2023-08-21T02:21:52;23.23;;;21.30;;
20415;SDS011;10367;52.202;5.996;2023-08-21T02:24:20;22.10;;;20.23;;
20415;SDS011;10367;52.202;5.996;2023-08-21T02:26:49;22.83;;;21.07;;
20415;SDS011;10367;52.202;5.996;2023-08-21T02:29:19;24.03;;;21.73;;
20415;SDS011;10367;52.202;5.996;2023-08-21T02:31:48;21.80;;;20.03;;
20415;SDS011;10367;52.202;5.996;2023-08-21T02:34:17;21.07;;;19.50;;
20415;SDS011;10367;52.202;5.996;2023-08-21T02:36:46;22.77;;;20.87;;
20415;SDS011;10367;52.202;5.996;2023-08-21T02:39:15;23.83;;;21.43;;
20415;SDS011;10367;52.202;5.996;2023-08-21T02:41:44;22.63;;;20.77;;
20415;SDS011;10367;52.202;5.996;2023-08-21T02:44:14;24.27;;;22.27;;
20415;SDS011;10367;52.202;5.996;2023-08-21T02:46:43;21.90;;;20.30;;
20415;SDS011;10367;52.202;5.996;2023-08-21T02:49:12;24.23;;;22.23;;
20415;SDS011;10367;52.202;5.996;2023-08-21T02:51:41;21.33;;;19.60;;
20415;SDS011;10367;52.202;5.996;2023-08-21T02:54:09;24.67;;;22.50;;
20415;SDS011;10367;52.202;5.996;2023-08-21T02:56:39;21.67;;;20.13;;
20415;SDS011;10367;52.202;5.996;2023-08-21T02:59:07;24.17;;;21.30;;
20415;SDS011;10367;52.202;5.996;2023-08-21T03:01:40;21.10;;;19.40;;
20415;SDS011;10367;52.202;5.996;2023-08-21T03:04:09;22.73;;;20.93;;
20415;SDS011;10367;52.202;5.996;2023-08-21T03:06:39;21.40;;;19.80;;
20415;SDS011;10367;52.202;5.996;2023-08-21T03:09:08;24.87;;;22.93;;
20415;SDS011;10367;52.202;5.996;2023-08-21T03:11:37;24.17;;;22.00;;
20415;SDS011;10367;52.202;5.996;2023-08-21T03:14:06;20.97;;;19.33;;
20415;SDS011;10367;52.202;5.996;2023-08-21T03:16:35;22.83;;;20.70;;
20415;SDS011;10367;52.202;5.996;2023-08-21T03:19:05;24.30;;;22.17;;
20415;SDS011;10367;52.202;5.996;2023-08-21T03:21:34;22.73;;;20.70;;
20415;SDS011;10367;52.202;5.996;2023-08-21T03:24:05;22.83;;;20.80;;
20415;SDS011;10367;52.202;5.996;2023-08-21T03:26:35;24.23;;;22.10;;
20415;SDS011;10367;52.202;5.996;2023-08-21T03:29:03;23.97;;;21.70;;
20415;SDS011;10367;52.202;5.996;2023-08-21T03:31:32;22.27;;;20.27;;
20415;SDS011;10367;52.202;5.996;2023-08-21T03:34:02;22.10;;;20.30;;
20415;SDS011;10367;52.202;5.996;2023-08-21T03:36:33;21.83;;;20.23;;
20415;SDS011;10367;52.202;5.996;2023-08-21T03:39:04;21.90;;;20.30;;
20415;SDS011;10367;52.202;5.996;2023-08-21T03:41:33;21.77;;;19.97;;
20415;SDS011;10367;52.202;5.996;2023-08-21T03:44:02;21.40;;;19.70;;
20415;SDS011;10367;52.202;5.996;2023-08-21T03:46:31;23.10;;;21.00;;
20415;SDS011;10367;52.202;5.996;2023-08-21T03:49:01;22.20;;;20.33;;
20415;SDS011;10367;52.202;5.996;2023-08-21T03:51:34;22.47;;;20.60;;
20415;SDS011;10367;52.202;5.996;2023-08-21T03:54:03;23.83;;;21.73;;
20415;SDS011;10367;52.202;5.996;2023-08-21T03:56:33;23.83;;;21.43;;
20415;SDS011;10367;52.202;5.996;2023-08-21T03:59:04;23.17;;;21.03;;
20415;SDS011;10367;52.202;5.996;2023-08-21T04:01:35;21.37;;;19.67;;
20415;SDS011;10367;52.202;5.996;2023-08-21T04:04:04;22.73;;;21.10;;
20415;SDS011;10367;52.202;5.996;2023-08-21T04:06:34;23.83;;;21.70;;
20415;SDS011;10367;52.202;5.996;2023-08-21T04:09:07;23.53;;;21.33;;
20415;SDS011;10367;52.202;5.996;2023-08-21T04:11:35;21.73;;;20.03;;
20415;SDS011;10367;52.202;5.996;2023-08-21T04:14:11;21.70;;;20.00;;
20415;SDS011;10367;52.202;5.996;2023-08-21T04:16:40;22.33;;;20.47;;
20415;SDS011;10367;52.202;5.996;2023-08-21T04:19:09;23.80;;;21.53;;
20415;SDS011;10367;52.202;5.996;2023-08-21T04:21:39;22.27;;;20.53;;
20415;SDS011;10367;52.202;5.996;2023-08-21T04:24:07;21.23;;;19.33;;
20415;SDS011;10367;52.202;5.996;2023-08-21T04:26:36;23.60;;;21.43;;
20415;SDS011;10367;52.202;5.996;2023-08-21T04:29:05;21.37;;;19.60;;
20415;SDS011;10367;52.202;5.996;2023-08-21T04:31:34;21.73;;;19.83;;
20415;SDS011;10367;52.202;5.996;2023-08-21T04:34:03;21.87;;;20.17;;
20415;SDS011;10367;52.202;5.996;2023-08-21T04:36:32;22.80;;;20.90;;
20415;SDS011;10367;52.202;5.996;2023-08-21T04:39:02;22.53;;;20.40;;
20415;SDS011;10367;52.202;5.996;2023-08-21T04:41:31;22.33;;;20.37;;
20415;SDS011;10367;52.202;5.996;2023-08-21T04:43:59;21.53;;;19.93;;
20415;SDS011;10367;52.202;5.996;2023-08-21T04:46:30;24.53;;;22.23;;
20415;SDS011;10367;52.202;5.996;2023-08-21T04:48:58;20.67;;;18.93;;
20415;SDS011;10367;52.202;5.996;2023-08-21T04:51:27;23.90;;;21.67;;
20415;SDS011;10367;52.202;5.996;2023-08-21T04:53:56;22.07;;;20.27;;
20415;SDS011;10367;52.202;5.996;2023-08-21T04:56:27;25.33;;;22.90;;
20415;SDS011;10367;52.202;5.996;2023-08-21T04:58:56;22.83;;;20.90;;
20415;SDS011;10367;52.202;5.996;2023-08-21T05:01:25;23.93;;;21.67;;
20415;SDS011;10367;52.202;5.996;2023-08-21T05:03:53;22.40;;;20.47;;
20415;SDS011;10367;52.202;5.996;2023-08-21T05:06:22;22.97;;;21.07;;
20415;SDS011;10367;52.202;5.996;2023-08-21T05:08:51;21.67;;;20.10;;
20415;SDS011;10367;52.202;5.996;2023-08-21T05:11:20;24.27;;;22.07;;
20415;SDS011;10367;52.202;5.996;2023-08-21T05:13:50;22.73;;;21.13;;
20415;SDS011;10367;52.202;5.996;2023-08-21T05:16:19;23.17;;;21.30;;
20415;SDS011;10367;52.202;5.996;2023-08-21T05:18:48;20.97;;;19.27;;
20415;SDS011;10367;52.202;5.996;2023-08-21T05:21:17;25.43;;;23.27;;
20415;SDS011;10367;52.202;5.996;2023-08-21T05:23:46;21.87;;;20.17;;
20415;SDS011;10367;52.202;5.996;2023-08-21T05:26:15;22.30;;;20.60;;
20415;SDS011;10367;52.202;5.996;2023-08-21T05:28:44;21.20;;;19.63;;
20415;SDS011;10367;52.202;5.996;2023-08-21T05:31:14;23.17;;;21.20;;
20415;SDS011;10367;52.202;5.996;2023-08-21T05:33:43;20.53;;;19.03;;
20415;SDS011;10367;52.202;5.996;2023-08-21T05:36:12;23.67;;;21.77;;
20415;SDS011;10367;52.202;5.996;2023-08-21T05:38:40;22.30;;;20.67;;
20415;SDS011;10367;52.202;5.996;2023-08-21T05:41:09;25.93;;;23.83;;
20415;SDS011;10367;52.202;5.996;2023-08-21T05:43:38;24.23;;;21.97;;
20415;SDS011;10367;52.202;5.996;2023-08-21T05:46:09;23.23;;;21.53;;
20415;SDS011;10367;52.202;5.996;2023-08-21T05:48:39;23.03;;;21.30;;
20415;SDS011;10367;52.202;5.996;2023-08-21T05:51:08;24.60;;;22.30;;
20415;SDS011;10367;52.202;5.996;2023-08-21T05:53:36;26.17;;;23.23;;
20415;SDS011;10367;52.202;5.996;2023-08-21T05:56:05;22.60;;;21.00;;
20415;SDS011;10367;52.202;5.996;2023-08-21T05:58:34;24.10;;;21.90;;
20415;SDS011;10367;52.202;5.996;2023-08-21T06:01:06;23.47;;;21.47;;
20415;SDS011;10367;52.202;5.996;2023-08-21T06:03:35;23.77;;;21.87;;
20415;SDS011;10367;52.202;5.996;2023-08-21T06:06:05;23.17;;;21.47;;
20415;SDS011;10367;52.202;5.996;2023-08-21T06:08:34;22.33;;;20.80;;
20415;SDS011;10367;52.202;5.996;2023-08-21T06:11:03;24.30;;;22.20;;
20415;SDS011;10367;52.202;5.996;2023-08-21T06:13:31;27.00;;;24.17;;
20415;SDS011;10367;52.202;5.996;2023-08-21T06:16:00;24.00;;;22.03;;
20415;SDS011;10367;52.202;5.996;2023-08-21T06:18:29;26.23;;;23.80;;
20415;SDS011;10367;52.202;5.996;2023-08-21T06:20:58;22.30;;;20.80;;
20415;SDS011;10367;52.202;5.996;2023-08-21T06:23:28;26.30;;;23.73;;
20415;SDS011;10367;52.202;5.996;2023-08-21T06:25:56;21.53;;;19.93;;
20415;SDS011;10367;52.202;5.996;2023-08-21T06:28:25;25.80;;;23.53;;
20415;SDS011;10367;52.202;5.996;2023-08-21T06:30:55;22.67;;;21.07;;
20415;SDS011;10367;52.202;5.996;2023-08-21T06:33:25;25.10;;;22.83;;
20415;SDS011;10367;52.202;5.996;2023-08-21T06:35:54;25.40;;;23.53;;
20415;SDS011;10367;52.202;5.996;2023-08-21T06:38:22;22.33;;;20.60;;
20415;SDS011;10367;52.202;5.996;2023-08-21T06:40:52;22.07;;;20.47;;
20415;SDS011;10367;52.202;5.996;2023-08-21T06:43:21;23.27;;;21.47;;
20415;SDS011;10367;52.202;5.996;2023-08-21T06:45:50;22.97;;;21.03;;
20415;SDS011;10367;52.202;5.996;2023-08-21T06:48:22;25.20;;;22.90;;
20415;SDS011;10367;52.202;5.996;2023-08-21T06:50:52;24.50;;;21.37;;
20415;SDS011;10367;52.202;5.996;2023-08-21T06:53:20;26.67;;;24.47;;
20415;SDS011;10367;52.202;5.996;2023-08-21T06:55:49;22.90;;;21.20;;
20415;SDS011;10367;52.202;5.996;2023-08-21T06:58:20;25.30;;;22.80;;
20415;SDS011;10367;52.202;5.996;2023-08-21T07:00:49;23.63;;;21.60;;
20415;SDS011;10367;52.202;5.996;2023-08-21T07:03:18;24.27;;;22.00;;
20415;SDS011;10367;52.202;5.996;2023-08-21T07:05:52;23.20;;;21.10;;
20415;SDS011;10367;52.202;5.996;2023-08-21T07:08:23;27.30;;;24.53;;
20415;SDS011;10367;52.202;5.996;2023-08-21T07:10:52;23.73;;;21.70;;
20415;SDS011;10367;52.202;5.996;2023-08-21T07:13:23;23.60;;;21.50;;
20415;SDS011;10367;52.202;5.996;2023-08-21T07:15:53;23.00;;;21.20;;
20415;SDS011;10367;52.202;5.996;2023-08-21T07:18:22;25.87;;;23.53;;
20415;SDS011;10367;52.202;5.996;2023-08-21T07:20:51;22.80;;;21.10;;
20415;SDS011;10367;52.202;5.996;2023-08-21T07:23:21;26.47;;;23.77;;
20415;SDS011;10367;52.202;5.996;2023-08-21T07:25:49;23.63;;;21.97;;
20415;SDS011;10367;52.202;5.996;2023-08-21T07:28:18;25.40;;;23.40;;
20415;SDS011;10367;52.202;5.996;2023-08-21T07:30:53;22.60;;;21.07;;
20415;SDS011;10367;52.202;5.996;2023-08-21T07:33:23;26.37;;;24.17;;
20415;SDS011;10367;52.202;5.996;2023-08-21T07:35:58;23.87;;;21.97;;
20415;SDS011;10367;52.202;5.996;2023-08-21T07:38:28;26.77;;;24.37;;
20415;SDS011;10367;52.202;5.996;2023-08-21T07:41:03;22.93;;;21.43;;
20415;SDS011;10367;52.202;5.996;2023-08-21T07:43:32;25.97;;;23.83;;
20415;SDS011;10367;52.202;5.996;2023-08-21T07:46:03;23.27;;;21.53;;
20415;SDS011;10367;52.202;5.996;2023-08-21T07:48:32;26.70;;;24.47;;
20415;SDS011;10367;52.202;5.996;2023-08-21T07:51:01;24.07;;;22.37;;
20415;SDS011;10367;52.202;5.996;2023-08-21T07:53:30;24.10;;;22.20;;
20415;SDS011;10367;52.202;5.996;2023-08-21T07:55:59;24.53;;;22.60;;
20415;SDS011;10367;52.202;5.996;2023-08-21T07:58:27;24.60;;;22.87;;
20415;SDS011;10367;52.202;5.996;2023-08-21T08:00:56;24.33;;;22.57;;
20415;SDS011;10367;52.202;5.996;2023-08-21T08:03:26;26.57;;;24.43;;
20415;SDS011;10367;52.202;5.996;2023-08-21T08:05:55;26.00;;;23.90;;
20415;SDS011;10367;52.202;5.996;2023-08-21T08:08:24;26.53;;;24.17;;
20415;SDS011;10367;52.202;5.996;2023-08-21T08:10:53;25.90;;;23.80;;
20415;SDS011;10367;52.202;5.996;2023-08-21T08:13:22;27.80;;;25.33;;
20415;SDS011;10367;52.202;5.996;2023-08-21T08:15:50;25.23;;;23.17;;
20415;SDS011;10367;52.202;5.996;2023-08-21T08:18:19;24.83;;;23.10;;
20415;SDS011;10367;52.202;5.996;2023-08-21T08:20:49;26.20;;;24.10;;
20415;SDS011;10367;52.202;5.996;2023-08-21T08:23:19;26.33;;;23.90;;
20415;SDS011;10367;52.202;5.996;2023-08-21T08:25:48;25.47;;;23.57;;
20415;SDS011;10367;52.202;5.996;2023-08-21T08:28:16;25.17;;;23.30;;
20415;SDS011;10367;52.202;5.996;2023-08-21T08:30:45;26.20;;;24.30;;
20415;SDS011;10367;52.202;5.996;2023-08-21T08:33:14;25.37;;;23.60;;
20415;SDS011;10367;52.202;5.996;2023-08-21T08:35:43;25.43;;;23.33;;
20415;SDS011;10367;52.202;5.996;2023-08-21T08:38:13;25.23;;;23.23;;
20415;SDS011;10367;52.202;5.996;2023-08-21T08:40:43;26.00;;;23.93;;
20415;SDS011;10367;52.202;5.996;2023-08-21T08:43:13;27.33;;;24.80;;
20415;SDS011;10367;52.202;5.996;2023-08-21T08:45:43;26.20;;;24.17;;
20415;SDS011;10367;52.202;5.996;2023-08-21T08:48:15;24.17;;;22.67;;
20415;SDS011;10367;52.202;5.996;2023-08-21T08:50:45;26.07;;;23.90;;
20415;SDS011;10367;52.202;5.996;2023-08-21T08:53:18;28.90;;;26.10;;
20415;SDS011;10367;52.202;5.996;2023-08-21T08:55:47;25.87;;;23.67;;
20415;SDS011;10367;52.202;5.996;2023-08-21T08:58:17;27.33;;;25.03;;
20415;SDS011;10367;52.202;5.996;2023-08-21T09:00:45;27.07;;;24.90;;
20415;SDS011;10367;52.202;5.996;2023-08-21T09:03:14;27.70;;;25.37;;
20415;SDS011;10367;52.202;5.996;2023-08-21T09:05:43;26.20;;;24.37;;
20415;SDS011;10367;52.202;5.996;2023-08-21T09:08:12;26.90;;;24.60;;
20415;SDS011;10367;52.202;5.996;2023-08-21T09:10:43;27.67;;;25.30;;
20415;SDS011;10367;52.202;5.996;2023-08-21T09:13:13;28.80;;;26.33;;
20415;SDS011;10367;52.202;5.996;2023-08-21T09:15:43;26.77;;;24.37;;
20415;SDS011;10367;52.202;5.996;2023-08-21T09:18:14;26.63;;;24.47;;
20415;SDS011;10367;52.202;5.996;2023-08-21T09:20:43;25.97;;;23.83;;
20415;SDS011;10367;52.202;5.996;2023-08-21T09:23:13;25.87;;;24.00;;
20415;SDS011;10367;52.202;5.996;2023-08-21T09:25:45;25.20;;;23.30;;
20415;SDS011;10367;52.202;5.996;2023-08-21T09:28:17;25.57;;;23.60;;
20415;SDS011;10367;52.202;5.996;2023-08-21T09:30:48;24.77;;;22.97;;
20415;SDS011;10367;52.202;5.996;2023-08-21T09:33:18;25.07;;;23.10;;
20415;SDS011;10367;52.202;5.996;2023-08-21T09:35:48;26.10;;;23.90;;
20415;SDS011;10367;52.202;5.996;2023-08-21T09:38:19;24.13;;;22.30;;
20415;SDS011;10367;52.202;5.996;2023-08-21T09:40:53;25.33;;;23.70;;
20415;SDS011;10367;52.202;5.996;2023-08-21T09:43:23;26.50;;;24.47;;
20415;SDS011;10367;52.202;5.996;2023-08-21T09:45:52;25.17;;;23.47;;
20415;SDS011;10367;52.202;5.996;2023-08-21T09:48:23;26.13;;;24.33;;
20415;SDS011;10367;52.202;5.996;2023-08-21T09:50:54;26.30;;;24.47;;
20415;SDS011;10367;52.202;5.996;2023-08-21T09:53:23;27.67;;;25.30;;
20415;SDS011;10367;52.202;5.996;2023-08-21T09:55:54;25.27;;;23.40;;
20415;SDS011;10367;52.202;5.996;2023-08-21T09:58:23;28.73;;;26.40;;
20415;SDS011;10367;52.202;5.996;2023-08-21T10:00:55;25.63;;;23.97;;
20415;SDS011;10367;52.202;5.996;2023-08-21T10:03:26;28.83;;;26.60;;
20415;SDS011;10367;52.202;5.996;2023-08-21T10:05:56;26.20;;;24.20;;
20415;SDS011;10367;52.202;5.996;2023-08-21T10:08:26;27.67;;;25.27;;
20415;SDS011;10367;52.202;5.996;2023-08-21T10:10:58;27.27;;;25.23;;
20415;SDS011;10367;52.202;5.996;2023-08-21T10:13:31;27.27;;;25.20;;
20415;SDS011;10367;52.202;5.996;2023-08-21T10:16:01;25.50;;;23.57;;
20415;SDS011;10367;52.202;5.996;2023-08-21T10:18:30;28.37;;;26.07;;
20415;SDS011;10367;52.202;5.996;2023-08-21T10:21:12;26.73;;;24.73;;
20415;SDS011;10367;52.202;5.996;2023-08-21T10:23:45;26.13;;;24.33;;
20415;SDS011;10367;52.202;5.996;2023-08-21T10:26:18;26.53;;;24.63;;
20415;SDS011;10367;52.202;5.996;2023-08-21T10:28:48;26.67;;;24.87;;
20415;SDS011;10367;52.202;5.996;2023-08-21T10:31:31;25.80;;;24.20;;
20415;SDS011;10367;52.202;5.996;2023-08-21T10:34:02;26.47;;;24.63;;
20415;SDS011;10367;52.202;5.996;2023-08-21T10:39:32;28.30;;;26.27;;
20415;SDS011;10367;52.202;5.996;2023-08-21T10:42:06;26.30;;;24.80;;
20415;SDS011;10367;52.202;5.996;2023-08-21T10:44:38;27.83;;;25.87;;
20415;SDS011;10367;52.202;5.996;2023-08-21T10:47:19;27.77;;;25.70;;
20415;SDS011;10367;52.202;5.996;2023-08-21T10:49:51;26.17;;;24.40;;
20415;SDS011;10367;52.202;5.996;2023-08-21T10:52:21;25.70;;;24.20;;
20415;SDS011;10367;52.202;5.996;2023-08-21T10:54:52;25.90;;;24.30;;
20415;SDS011;10367;52.202;5.996;2023-08-21T10:57:24;28.80;;;26.40;;
20415;SDS011;10367;52.202;5.996;2023-08-21T10:59:54;26.10;;;24.47;;
20415;SDS011;10367;52.202;5.996;2023-08-21T11:02:24;26.30;;;24.60;;
20415;SDS011;10367;52.202;5.996;2023-08-21T11:04:56;25.40;;;23.73;;
20415;SDS011;10367;52.202;5.996;2023-08-21T11:07:25;28.17;;;26.10;;
20415;SDS011;10367;52.202;5.996;2023-08-21T11:09:55;24.97;;;23.47;;
20415;SDS011;10367;52.202;5.996;2023-08-21T11:12:25;27.87;;;25.80;;
20415;SDS011;10367;52.202;5.996;2023-08-21T11:14:54;26.43;;;24.53;;
20415;SDS011;10367;52.202;5.996;2023-08-21T11:17:23;27.03;;;24.87;;
20415;SDS011;10367;52.202;5.996;2023-08-21T11:19:52;26.10;;;24.43;;
20415;SDS011;10367;52.202;5.996;2023-08-21T11:22:21;26.23;;;24.63;;
20415;SDS011;10367;52.202;5.996;2023-08-21T11:24:57;27.00;;;25.07;;
20415;SDS011;10367;52.202;5.996;2023-08-21T11:27:27;25.57;;;23.57;;
20415;SDS011;10367;52.202;5.996;2023-08-21T11:29:56;25.97;;;24.27;;
20415;SDS011;10367;52.202;5.996;2023-08-21T11:32:25;25.67;;;23.87;;
20415;SDS011;10367;52.202;5.996;2023-08-21T11:34:57;27.77;;;25.77;;
20415;SDS011;10367;52.202;5.996;2023-08-21T11:37:26;26.20;;;24.60;;
20415;SDS011;10367;52.202;5.996;2023-08-21T11:39:56;26.63;;;24.70;;
20415;SDS011;10367;52.202;5.996;2023-08-21T11:42:30;26.80;;;24.90;;
20415;SDS011;10367;52.202;5.996;2023-08-21T11:45:00;26.53;;;24.93;;
20415;SDS011;10367;52.202;5.996;2023-08-21T11:47:31;30.10;;;27.87;;
20415;SDS011;10367;52.202;5.996;2023-08-21T11:50:05;27.43;;;25.80;;
20415;SDS011;10367;52.202;5.996;2023-08-21T11:52:36;30.73;;;28.43;;
20415;SDS011;10367;52.202;5.996;2023-08-21T11:55:08;27.30;;;25.57;;
20415;SDS011;10367;52.202;5.996;2023-08-21T11:57:48;26.30;;;24.90;;
20415;SDS011;10367;52.202;5.996;2023-08-21T12:00:18;24.83;;;23.33;;
20415;SDS011;10367;52.202;5.996;2023-08-21T12:02:53;26.33;;;24.77;;
20415;SDS011;10367;52.202;5.996;2023-08-21T12:05:23;28.57;;;26.67;;
20415;SDS011;10367;52.202;5.996;2023-08-21T12:07:54;26.23;;;24.53;;
20415;SDS011;10367;52.202;5.996;2023-08-21T12:10:24;27.37;;;25.70;;
20415;SDS011;10367;52.202;5.996;2023-08-21T12:12:55;27.30;;;25.60;;
20415;SDS011;10367;52.202;5.996;2023-08-21T12:15:24;27.13;;;25.37;;
20415;SDS011;10367;52.202;5.996;2023-08-21T12:17:53;27.47;;;25.80;;
20415;SDS011;10367;52.202;5.996;2023-08-21T12:20:22;27.40;;;25.67;;
20415;SDS011;10367;52.202;5.996;2023-08-21T12:22:51;27.37;;;25.70;;
20415;SDS011;10367;52.202;5.996;2023-08-21T12:25:19;27.27;;;25.57;;
20415;SDS011;10367;52.202;5.996;2023-08-21T12:27:49;27.90;;;25.97;;
20415;SDS011;10367;52.202;5.996;2023-08-21T12:30:36;29.90;;;27.77;;
20415;SDS011;10367;52.202;5.996;2023-08-21T12:33:13;27.93;;;26.20;;
20415;SDS011;10367;52.202;5.996;2023-08-21T12:35:53;26.20;;;24.60;;
20415;SDS011;10367;52.202;5.996;2023-08-21T12:38:23;28.98;;;27.15;;
20415;SDS011;10367;52.202;5.996;2023-08-21T12:40:59;27.48;;;25.88;;
20415;SDS011;10367;52.202;5.996;2023-08-21T12:43:33;30.23;;;27.90;;
20415;SDS011;10367;52.202;5.996;2023-08-21T12:46:04;26.97;;;25.47;;
20415;SDS011;10367;52.202;5.996;2023-08-21T12:48:39;27.50;;;25.63;;
20415;SDS011;10367;52.202;5.996;2023-08-21T12:51:08;28.60;;;26.65;;
20415;SDS011;10367;52.202;5.996;2023-08-21T12:53:40;27.35;;;25.80;;
20415;SDS011;10367;52.202;5.996;2023-08-21T12:56:09;27.33;;;25.70;;
20415;SDS011;10367;52.202;5.996;2023-08-21T12:58:38;30.58;;;28.20;;
20415;SDS011;10367;52.202;5.996;2023-08-21T13:01:08;28.75;;;27.00;;
20415;SDS011;10367;52.202;5.996;2023-08-21T13:03:43;27.83;;;26.13;;
20415;SDS011;10367;52.202;5.996;2023-08-21T13:06:13;27.60;;;25.88;;
20415;SDS011;10367;52.202;5.996;2023-08-21T13:08:43;29.52;;;27.60;;
20415;SDS011;10367;52.202;5.996;2023-08-21T13:11:13;28.17;;;26.48;;
20415;SDS011;10367;52.202;5.996;2023-08-21T13:13:43;30.38;;;28.35;;
20415;SDS011;10367;52.202;5.996;2023-08-21T13:16:17;27.55;;;25.85;;
20415;SDS011;10367;52.202;5.996;2023-08-21T13:18:46;30.30;;;28.33;;
20415;SDS011;10367;52.202;5.996;2023-08-21T13:21:15;29.58;;;27.33;;
20415;SDS011;10367;52.202;5.996;2023-08-21T13:23:44;30.30;;;28.23;;
20415;SDS011;10367;52.202;5.996;2023-08-21T13:26:13;26.48;;;24.98;;
20415;SDS011;10367;52.202;5.996;2023-08-21T13:28:41;29.77;;;27.77;;
20415;SDS011;10367;52.202;5.996;2023-08-21T13:31:11;26.15;;;24.70;;
20415;SDS011;10367;52.202;5.996;2023-08-21T13:33:48;28.52;;;26.60;;
20415;SDS011;10367;52.202;5.996;2023-08-21T13:36:18;28.20;;;26.40;;
20415;SDS011;10367;52.202;5.996;2023-08-21T13:38:50;28.17;;;26.50;;
20415;SDS011;10367;52.202;5.996;2023-08-21T13:41:19;28.50;;;26.80;;
20415;SDS011;10367;52.202;5.996;2023-08-21T13:43:48;27.95;;;26.23;;
20415;SDS011;10367;52.202;5.996;2023-08-21T13:46:21;30.00;;;28.00;;
20415;SDS011;10367;52.202;5.996;2023-08-21T13:48:51;27.98;;;26.25;;
20415;SDS011;10367;52.202;5.996;2023-08-21T13:51:20;28.88;;;27.10;;
20415;SDS011;10367;52.202;5.996;2023-08-21T13:53:49;28.88;;;26.92;;
20415;SDS011;10367;52.202;5.996;2023-08-21T13:56:19;28.42;;;26.80;;
20415;SDS011;10367;52.202;5.996;2023-08-21T13:58:48;28.08;;;26.40;;
20415;SDS011;10367;52.202;5.996;2023-08-21T14:01:17;29.40;;;27.70;;
20415;SDS011;10367;52.202;5.996;2023-08-21T14:03:46;30.95;;;28.83;;
20415;SDS011;10367;52.202;5.996;2023-08-21T14:06:16;27.08;;;25.20;;
20415;SDS011;10367;52.202;5.996;2023-08-21T14:08:47;29.83;;;28.02;;
20415;SDS011;10367;52.202;5.996;2023-08-21T14:11:16;28.73;;;26.90;;
20415;SDS011;10367;52.202;5.996;2023-08-21T14:13:44;29.45;;;27.23;;
20415;SDS011;10367;52.202;5.996;2023-08-21T14:16:13;27.08;;;25.50;;
20415;SDS011;10367;52.202;5.996;2023-08-21T14:18:42;27.95;;;26.05;;
20415;SDS011;10367;52.202;5.996;2023-08-21T14:21:11;27.88;;;26.10;;
20415;SDS011;10367;52.202;5.996;2023-08-21T14:23:41;30.03;;;27.90;;
20415;SDS011;10367;52.202;5.996;2023-08-21T14:26:09;27.23;;;25.58;;
20415;SDS011;10367;52.202;5.996;2023-08-21T14:28:40;30.08;;;27.98;;
20415;SDS011;10367;52.202;5.996;2023-08-21T14:31:11;27.77;;;26.08;;
20415;SDS011;10367;52.202;5.996;2023-08-21T14:33:40;28.40;;;26.50;;
20415;SDS011;10367;52.202;5.996;2023-08-21T14:36:08;27.57;;;25.87;;
20415;SDS011;10367;52.202;5.996;2023-08-21T14:38:37;29.57;;;27.53;;
20415;SDS011;10367;52.202;5.996;2023-08-21T14:41:07;29.87;;;27.43;;